UAL011 EDDM-KMIA
Flight info
| Callsign | UAL011 |
|---|---|
| Flight time | N/A |
| Altitude | 24000 |
| Route | MERSI4E MERSI Y100 UMTEX/N0480F330 Y100 TRA L856 HOC/N0479F320 DCT LUL DCT RLP DCT ROTSI DCT AMODO DCT COHPA UM729 RESMI UN491 LGL UN502 JSY DCT LIZAD/N0479F340 DCT LULOX/M083F340 DCT GIPER DCT ELSOX DCT DINIM NATG NICSO/M083F360 DCT LOMPI M202 ONGOT DCT PADRK M203 SNAGY/N0482F360 BNFSH3 |
| Aircraft | B77W/H-SDE1E2E3FGHIJ2J3J4J5M1RWXY/LB1D1 |
Departure
| Time | 2026-04-30 08:58 |
|---|---|
| Airport | Munich Airport (EDDM) |
Arrival
| Time | N/A |
|---|---|
| Airport | Miami International Airport (KMIA) |
| Time | Latitude | Longitude | Altitude | Speed | Heading |
|---|---|---|---|---|---|
| 2026-04-30 08:55 | 48.34263 | 11.74924 | 1481 ft | 0 kts | 174° |
| 2026-04-30 08:56 | 48.34243 | 11.74927 | 1483 ft | 11 kts | 174° |
| 2026-04-30 08:56 | 48.34170 | 11.74991 | 1479 ft | 14 kts | 134° |
| 2026-04-30 08:56 | 48.34105 | 11.75120 | 1482 ft | 16 kts | 122° |
| 2026-04-30 08:57 | 48.34083 | 11.75289 | 1484 ft | 17 kts | 84° |
| 2026-04-30 08:57 | 48.34105 | 11.75560 | 1490 ft | 50 kts | 83° |
| 2026-04-30 08:57 | 48.34168 | 11.76394 | 1490 ft | 109 kts | 83° |
| 2026-04-30 08:57 | 48.34276 | 11.77803 | 1480 ft | 156 kts | 83° |
| 2026-04-30 08:58 | 48.34422 | 11.79555 | 1692 ft | 173 kts | 82° |
| 2026-04-30 08:58 | 48.34579 | 11.81418 | 1998 ft | 187 kts | 83° |
| 2026-04-30 08:58 | 48.34740 | 11.83310 | 2692 ft | 182 kts | 85° |
| 2026-04-30 08:58 | 48.34866 | 11.85294 | 3017 ft | 202 kts | 84° |
| 2026-04-30 08:59 | 48.35017 | 11.87503 | 3377 ft | 218 kts | 84° |
| 2026-04-30 08:59 | 48.35184 | 11.89797 | 4071 ft | 223 kts | 84° |
| 2026-04-30 08:59 | 48.35363 | 11.92159 | 4686 ft | 228 kts | 84° |
| 2026-04-30 08:59 | 48.35282 | 11.94504 | 5343 ft | 227 kts | 108° |
| 2026-04-30 09:00 | 48.34529 | 11.96621 | 5862 ft | 236 kts | 126° |
| 2026-04-30 09:00 | 48.33280 | 11.98288 | 6310 ft | 244 kts | 140° |
| 2026-04-30 09:00 | 48.31914 | 11.99861 | 6901 ft | 247 kts | 139° |
| 2026-04-30 09:00 | 48.30529 | 12.01473 | 7344 ft | 256 kts | 140° |
| 2026-04-30 09:01 | 48.28891 | 12.02671 | 7585 ft | 274 kts | 169° |
| 2026-04-30 09:01 | 48.26973 | 12.02670 | 8028 ft | 279 kts | 178° |
| 2026-04-30 09:01 | 48.25003 | 12.02530 | 8514 ft | 286 kts | 178° |
| 2026-04-30 09:01 | 48.23007 | 12.02411 | 9136 ft | 289 kts | 178° |
| 2026-04-30 09:02 | 48.18882 | 12.02171 | 10115 ft | 303 kts | 179° |
| 2026-04-30 09:02 | 48.16770 | 12.02044 | 10722 ft | 305 kts | 179° |
| 2026-04-30 09:02 | 48.14606 | 12.01919 | 10945 ft | 321 kts | 179° |
| 2026-04-30 09:03 | 48.12305 | 12.01789 | 11131 ft | 340 kts | 180° |
| 2026-04-30 09:03 | 48.09907 | 12.01357 | 11197 ft | 357 kts | 197° |
| 2026-04-30 09:03 | 48.07704 | 11.99488 | 11346 ft | 376 kts | 224° |
| 2026-04-30 09:03 | 48.06202 | 11.96269 | 11708 ft | 385 kts | 250° |
| 2026-04-30 09:04 | 48.05490 | 11.92413 | 12136 ft | 385 kts | 259° |
| 2026-04-30 09:04 | 48.04885 | 11.88471 | 12754 ft | 390 kts | 258° |
| 2026-04-30 09:04 | 48.04257 | 11.84575 | 13424 ft | 394 kts | 258° |
| 2026-04-30 09:04 | 48.03596 | 11.80588 | 14084 ft | 398 kts | 258° |
| 2026-04-30 09:05 | 48.02918 | 11.76544 | 14643 ft | 402 kts | 257° |
| 2026-04-30 09:05 | 48.02228 | 11.72464 | 15196 ft | 408 kts | 257° |
| 2026-04-30 09:05 | 48.01525 | 11.68336 | 15731 ft | 413 kts | 257° |
| 2026-04-30 09:05 | 48.00927 | 11.64120 | 16225 ft | 417 kts | 264° |
| 2026-04-30 09:06 | 48.00647 | 11.59799 | 16763 ft | 420 kts | 269° |
| 2026-04-30 09:06 | 48.00504 | 11.55423 | 17348 ft | 423 kts | 270° |
| 2026-04-30 09:06 | 48.00382 | 11.51005 | 17887 ft | 429 kts | 270° |
| 2026-04-30 09:06 | 48.00236 | 11.46531 | 18417 ft | 434 kts | 270° |
| 2026-04-30 09:07 | 48.00059 | 11.42015 | 18943 ft | 439 kts | 269° |
| 2026-04-30 09:07 | 47.99856 | 11.37435 | 19466 ft | 443 kts | 269° |
| 2026-04-30 09:07 | 47.99634 | 11.32819 | 19990 ft | 447 kts | 269° |
| 2026-04-30 09:07 | 47.99404 | 11.28169 | 20496 ft | 451 kts | 269° |
| 2026-04-30 09:08 | 47.99170 | 11.23477 | 20980 ft | 456 kts | 269° |
| 2026-04-30 09:08 | 47.98933 | 11.18747 | 21476 ft | 460 kts | 269° |
| 2026-04-30 09:08 | 47.98692 | 11.13962 | 21973 ft | 464 kts | 269° |
| 2026-04-30 09:08 | 47.98448 | 11.09134 | 22446 ft | 468 kts | 269° |
| 2026-04-30 09:09 | 47.98191 | 11.04280 | 22949 ft | 472 kts | 267° |
| 2026-04-30 09:09 | 47.97631 | 10.99426 | 23370 ft | 480 kts | 259° |
| 2026-04-30 09:09 | 47.96734 | 10.94584 | 23828 ft | 486 kts | 256° |
| 2026-04-30 09:09 | 47.95739 | 10.89744 | 24234 ft | 489 kts | 255° |
| 2026-04-30 09:10 | 47.94769 | 10.84864 | 24650 ft | 492 kts | 257° |
| 2026-04-30 09:10 | 47.93859 | 10.79930 | 25079 ft | 495 kts | 257° |
| 2026-04-30 09:10 | 47.92988 | 10.75021 | 25479 ft | 498 kts | 258° |
| 2026-04-30 09:10 | 47.92099 | 10.70020 | 25891 ft | 501 kts | 257° |
| 2026-04-30 09:11 | 47.91186 | 10.64979 | 26280 ft | 504 kts | 257° |
| 2026-04-30 09:11 | 47.90262 | 10.59926 | 26657 ft | 507 kts | 257° |
| 2026-04-30 09:11 | 47.89329 | 10.54850 | 27064 ft | 510 kts | 257° |
| 2026-04-30 09:11 | 47.88387 | 10.49732 | 27431 ft | 513 kts | 257° |
| 2026-04-30 09:12 | 47.87442 | 10.44586 | 27773 ft | 517 kts | 257° |
| 2026-04-30 09:12 | 47.86487 | 10.39409 | 28150 ft | 520 kts | 257° |
| 2026-04-30 09:12 | 47.85609 | 10.34172 | 28473 ft | 522 kts | 261° |
| 2026-04-30 09:12 | 47.85029 | 10.28842 | 28841 ft | 522 kts | 267° |
| 2026-04-30 09:13 | 47.84800 | 10.23449 | 29176 ft | 523 kts | 271° |
| 2026-04-30 09:13 | 47.84635 | 10.18033 | 29560 ft | 524 kts | 270° |
| 2026-04-30 09:13 | 47.84449 | 10.12632 | 30144 ft | 520 kts | 270° |
| 2026-04-30 09:13 | 47.84234 | 10.07270 | 30668 ft | 518 kts | 269° |
| 2026-04-30 09:14 | 47.84003 | 10.01939 | 31115 ft | 516 kts | 269° |
| 2026-04-30 09:14 | 47.83845 | 9.96623 | 31545 ft | 512 kts | 272° |
| 2026-04-30 09:14 | 47.83820 | 9.91325 | 31968 ft | 510 kts | 274° |
| 2026-04-30 09:14 | 47.83834 | 9.86055 | 32327 ft | 510 kts | 274° |
| 2026-04-30 09:15 | 47.83852 | 9.75432 | 32308 ft | 511 kts | 273° |
| 2026-04-30 09:15 | 47.83802 | 9.64917 | 32282 ft | 507 kts | 271° |
| 2026-04-30 09:16 | 47.82961 | 9.54487 | 32287 ft | 509 kts | 262° |
| 2026-04-30 09:16 | 47.81650 | 9.44200 | 32277 ft | 510 kts | 262° |
| 2026-04-30 09:17 | 47.80560 | 9.35516 | 32277 ft | 510 kts | 262° |
| 2026-04-30 09:17 | 47.79077 | 9.23452 | 32277 ft | 510 kts | 262° |
| 2026-04-30 09:18 | 47.77800 | 9.13062 | 32268 ft | 510 kts | 262° |
| 2026-04-30 09:18 | 47.76730 | 9.04430 | 32271 ft | 510 kts | 261° |
| 2026-04-30 09:19 | 47.75435 | 8.94061 | 32268 ft | 511 kts | 261° |
| 2026-04-30 09:19 | 47.74129 | 8.83688 | 32248 ft | 510 kts | 261° |
| 2026-04-30 09:20 | 47.72816 | 8.73349 | 32263 ft | 509 kts | 261° |
| 2026-04-30 09:20 | 47.71497 | 8.63033 | 32269 ft | 508 kts | 261° |
| 2026-04-30 09:21 | 47.70173 | 8.52739 | 32264 ft | 507 kts | 261° |
| 2026-04-30 09:21 | 47.68622 | 8.42536 | 32261 ft | 508 kts | 254° |
| 2026-04-30 09:22 | 47.65990 | 8.32841 | 32276 ft | 507 kts | 246° |
| 2026-04-30 09:22 | 47.63172 | 8.23265 | 32269 ft | 506 kts | 247° |
| 2026-04-30 09:23 | 47.60535 | 8.13627 | 32244 ft | 503 kts | 257° |
| 2026-04-30 09:23 | 47.60043 | 8.08529 | 32273 ft | 499 kts | 272° |
| 2026-04-30 09:23 | 47.60333 | 8.03426 | 32267 ft | 496 kts | 283° |
| 2026-04-30 09:24 | 47.62340 | 7.93787 | 32268 ft | 494 kts | 291° |
| 2026-04-30 09:24 | 47.64498 | 7.84076 | 32261 ft | 498 kts | 290° |
| 2026-04-30 09:25 | 47.66608 | 7.74262 | 32269 ft | 500 kts | 290° |
| 2026-04-30 09:25 | 47.68697 | 7.64392 | 32251 ft | 501 kts | 290° |
| 2026-04-30 09:26 | 47.70772 | 7.54533 | 32254 ft | 499 kts | 289° |
| 2026-04-30 09:26 | 47.72832 | 7.44710 | 32240 ft | 497 kts | 289° |
| 2026-04-30 09:27 | 47.74874 | 7.34938 | 32255 ft | 494 kts | 289° |
| 2026-04-30 09:27 | 47.76899 | 7.25196 | 32246 ft | 493 kts | 289° |
| 2026-04-30 09:28 | 47.78914 | 7.15462 | 32227 ft | 492 kts | 289° |
| 2026-04-30 09:28 | 47.80919 | 7.05721 | 32234 ft | 495 kts | 289° |
| 2026-04-30 09:29 | 47.82938 | 6.95877 | 32233 ft | 497 kts | 289° |
| 2026-04-30 09:29 | 47.84944 | 6.86037 | 32208 ft | 496 kts | 289° |
| 2026-04-30 09:30 | 47.86928 | 6.76265 | 32207 ft | 496 kts | 289° |
| 2026-04-30 09:30 | 47.88914 | 6.66409 | 32206 ft | 497 kts | 289° |
| 2026-04-30 09:31 | 47.90896 | 6.56546 | 32196 ft | 497 kts | 289° |
| 2026-04-30 09:31 | 47.92872 | 6.46661 | 32190 ft | 498 kts | 288° |
| 2026-04-30 09:32 | 47.94839 | 6.36762 | 32190 ft | 498 kts | 288° |
| 2026-04-30 09:32 | 47.96799 | 6.26857 | 32189 ft | 497 kts | 288° |
| 2026-04-30 09:33 | 47.98746 | 6.16963 | 32196 ft | 497 kts | 288° |
| 2026-04-30 09:33 | 48.00687 | 6.07052 | 32195 ft | 497 kts | 288° |
| 2026-04-30 09:34 | 48.02617 | 5.97142 | 32201 ft | 497 kts | 288° |
| 2026-04-30 09:34 | 48.04527 | 5.87290 | 32195 ft | 497 kts | 288° |
| 2026-04-30 09:35 | 48.06444 | 5.77343 | 32197 ft | 498 kts | 287° |
| 2026-04-30 09:35 | 48.08353 | 5.67388 | 32189 ft | 498 kts | 287° |
| 2026-04-30 09:36 | 48.10258 | 5.57405 | 32192 ft | 499 kts | 287° |
| 2026-04-30 09:36 | 48.12158 | 5.47398 | 32186 ft | 501 kts | 287° |
| 2026-04-30 09:37 | 48.14052 | 5.37359 | 32180 ft | 502 kts | 287° |
| 2026-04-30 09:37 | 48.15942 | 5.27292 | 32177 ft | 502 kts | 287° |
| 2026-04-30 09:38 | 48.17821 | 5.17229 | 32178 ft | 502 kts | 287° |
| 2026-04-30 09:38 | 48.19689 | 5.07169 | 32174 ft | 502 kts | 286° |
| 2026-04-30 09:39 | 48.21552 | 4.97083 | 32173 ft | 502 kts | 286° |
| 2026-04-30 09:39 | 48.23406 | 4.86996 | 32189 ft | 502 kts | 286° |
| 2026-04-30 09:40 | 48.25249 | 4.76906 | 32186 ft | 502 kts | 286° |
| 2026-04-30 09:40 | 48.27075 | 4.66866 | 32176 ft | 502 kts | 285° |
| 2026-04-30 09:41 | 48.28436 | 4.56597 | 32198 ft | 501 kts | 278° |
| 2026-04-30 09:41 | 48.29341 | 4.46210 | 32177 ft | 502 kts | 277° |
| 2026-04-30 09:42 | 48.30244 | 4.35807 | 32186 ft | 502 kts | 277° |
| 2026-04-30 09:42 | 48.31172 | 4.25401 | 32192 ft | 502 kts | 277° |
| 2026-04-30 09:43 | 48.32104 | 4.14997 | 32173 ft | 502 kts | 277° |
| 2026-04-30 09:43 | 48.33027 | 4.04598 | 32177 ft | 502 kts | 277° |
| 2026-04-30 09:44 | 48.33938 | 3.94204 | 32190 ft | 501 kts | 277° |
| 2026-04-30 09:44 | 48.34836 | 3.83829 | 32178 ft | 501 kts | 277° |
| 2026-04-30 09:45 | 48.35726 | 3.73446 | 32179 ft | 501 kts | 277° |
| 2026-04-30 09:45 | 48.36605 | 3.63068 | 32188 ft | 500 kts | 277° |
| 2026-04-30 09:46 | 48.37470 | 3.52750 | 32177 ft | 501 kts | 277° |
| 2026-04-30 09:46 | 48.38332 | 3.42360 | 32179 ft | 501 kts | 276° |
| 2026-04-30 09:47 | 48.39183 | 3.31966 | 32154 ft | 501 kts | 276° |
| 2026-04-30 09:47 | 48.40027 | 3.21548 | 32183 ft | 502 kts | 276° |
| 2026-04-30 09:48 | 48.40864 | 3.11106 | 32176 ft | 503 kts | 276° |
| 2026-04-30 09:48 | 48.41702 | 3.00653 | 32178 ft | 504 kts | 277° |
| 2026-04-30 09:49 | 48.43290 | 2.90385 | 32179 ft | 504 kts | 287° |
| 2026-04-30 09:49 | 48.45353 | 2.80282 | 32176 ft | 504 kts | 286° |
| 2026-04-30 09:50 | 48.47298 | 2.70142 | 32174 ft | 504 kts | 285° |
| 2026-04-30 09:50 | 48.49219 | 2.59989 | 32171 ft | 503 kts | 285° |
| 2026-04-30 09:51 | 48.51129 | 2.49907 | 32177 ft | 503 kts | 285° |
| 2026-04-30 09:51 | 48.53047 | 2.39761 | 32185 ft | 503 kts | 285° |
| 2026-04-30 09:52 | 48.54954 | 2.29616 | 32184 ft | 503 kts | 285° |
| 2026-04-30 09:52 | 48.56847 | 2.19463 | 32158 ft | 502 kts | 284° |
| 2026-04-30 09:53 | 48.58367 | 2.09174 | 32168 ft | 502 kts | 281° |
| 2026-04-30 09:53 | 48.59759 | 1.98848 | 32154 ft | 501 kts | 281° |
| 2026-04-30 09:54 | 48.61167 | 1.88530 | 32161 ft | 501 kts | 281° |
| 2026-04-30 09:54 | 48.62585 | 1.78221 | 32137 ft | 501 kts | 281° |
| 2026-04-30 09:55 | 48.63992 | 1.67918 | 32139 ft | 500 kts | 281° |
| 2026-04-30 09:55 | 48.65392 | 1.57618 | 32139 ft | 500 kts | 280° |
| 2026-04-30 09:56 | 48.66793 | 1.47317 | 32140 ft | 500 kts | 280° |
| 2026-04-30 09:56 | 48.68182 | 1.37031 | 32137 ft | 500 kts | 280° |
| 2026-04-30 09:57 | 48.69559 | 1.26709 | 32160 ft | 500 kts | 280° |
| 2026-04-30 09:57 | 48.70918 | 1.16403 | 32142 ft | 498 kts | 280° |
| 2026-04-30 09:58 | 48.72253 | 1.06206 | 32139 ft | 496 kts | 280° |
| 2026-04-30 09:58 | 48.73584 | 0.95991 | 32131 ft | 494 kts | 280° |
| 2026-04-30 09:59 | 48.76217 | 0.75600 | 32139 ft | 493 kts | 280° |
| 2026-04-30 10:00 | 48.78175 | 0.60305 | 32130 ft | 494 kts | 280° |
| 2026-04-30 10:01 | 48.80418 | 0.45026 | 32130 ft | 495 kts | 285° |
| 2026-04-30 10:02 | 48.83211 | 0.30139 | 32113 ft | 484 kts | 285° |
| 2026-04-30 10:02 | 48.85019 | 0.20232 | 32121 ft | 489 kts | 284° |
| 2026-04-30 10:03 | 48.86792 | 0.10281 | 32121 ft | 485 kts | 284° |
| 2026-04-30 10:03 | 48.88544 | 0.00382 | 32114 ft | 485 kts | 284° |
| 2026-04-30 10:04 | 48.90310 | -0.09638 | 32119 ft | 495 kts | 284° |
| 2026-04-30 10:04 | 48.92083 | -0.19735 | 32113 ft | 491 kts | 284° |
| 2026-04-30 10:05 | 48.93814 | -0.29718 | 32109 ft | 487 kts | 284° |
| 2026-04-30 10:05 | 48.95503 | -0.39771 | 32112 ft | 494 kts | 283° |
| 2026-04-30 10:06 | 48.97188 | -0.49889 | 32101 ft | 491 kts | 283° |
| 2026-04-30 10:06 | 48.98854 | -0.59911 | 32096 ft | 488 kts | 283° |
| 2026-04-30 10:07 | 49.00513 | -0.69925 | 32106 ft | 494 kts | 283° |
| 2026-04-30 10:07 | 49.02180 | -0.80064 | 32097 ft | 490 kts | 283° |
| 2026-04-30 10:08 | 49.03825 | -0.90118 | 32102 ft | 490 kts | 283° |
| 2026-04-30 10:08 | 49.05469 | -1.00238 | 32096 ft | 493 kts | 283° |
| 2026-04-30 10:09 | 49.06836 | -1.08692 | 32093 ft | 495 kts | 283° |
| 2026-04-30 10:09 | 49.08475 | -1.18877 | 32097 ft | 493 kts | 283° |
| 2026-04-30 10:10 | 49.10118 | -1.29018 | 32101 ft | 492 kts | 283° |
| 2026-04-30 10:10 | 49.11756 | -1.39121 | 32093 ft | 490 kts | 283° |
| 2026-04-30 10:11 | 49.13378 | -1.49204 | 32090 ft | 489 kts | 283° |
| 2026-04-30 10:11 | 49.14988 | -1.59293 | 32093 ft | 489 kts | 283° |
| 2026-04-30 10:12 | 49.16593 | -1.69409 | 32093 ft | 491 kts | 282° |
| 2026-04-30 10:12 | 49.18194 | -1.79558 | 32102 ft | 492 kts | 282° |
| 2026-04-30 10:13 | 49.19795 | -1.89775 | 32069 ft | 495 kts | 282° |
| 2026-04-30 10:13 | 49.21395 | -2.00043 | 32061 ft | 498 kts | 282° |
| 2026-04-30 10:14 | 49.23036 | -2.10353 | 32104 ft | 499 kts | 283° |
| 2026-04-30 10:14 | 49.25708 | -2.25764 | 32093 ft | 500 kts | 283° |
| 2026-04-30 10:15 | 49.27481 | -2.36051 | 32088 ft | 500 kts | 282° |
| 2026-04-30 10:15 | 49.29228 | -2.46351 | 32080 ft | 499 kts | 282° |
| 2026-04-30 10:16 | 49.30946 | -2.56584 | 32080 ft | 499 kts | 282° |
| 2026-04-30 10:17 | 49.33523 | -2.72040 | 32084 ft | 499 kts | 282° |
| 2026-04-30 10:17 | 49.36085 | -2.87540 | 32091 ft | 500 kts | 282° |
| 2026-04-30 10:18 | 49.37782 | -2.97884 | 32091 ft | 500 kts | 281° |
| 2026-04-30 10:19 | 49.40314 | -3.13431 | 32100 ft | 500 kts | 281° |
| 2026-04-30 10:19 | 49.41989 | -3.23802 | 32091 ft | 500 kts | 281° |
| 2026-04-30 10:20 | 49.43652 | -3.34157 | 32087 ft | 499 kts | 281° |
| 2026-04-30 10:20 | 49.46129 | -3.49706 | 32078 ft | 499 kts | 281° |
| 2026-04-30 10:21 | 49.47766 | -3.60062 | 32090 ft | 498 kts | 281° |
| 2026-04-30 10:21 | 49.49392 | -3.70418 | 32075 ft | 499 kts | 281° |
| 2026-04-30 10:22 | 49.51011 | -3.80799 | 32068 ft | 499 kts | 280° |
| 2026-04-30 10:22 | 49.52624 | -3.91203 | 32079 ft | 500 kts | 280° |
| 2026-04-30 10:23 | 49.54218 | -4.01547 | 32069 ft | 500 kts | 280° |
| 2026-04-30 10:23 | 49.55823 | -4.12035 | 32081 ft | 500 kts | 280° |
| 2026-04-30 10:24 | 49.57409 | -4.22463 | 32069 ft | 500 kts | 280° |
| 2026-04-30 10:24 | 49.59011 | -4.32908 | 32064 ft | 501 kts | 282° |
| 2026-04-30 10:25 | 49.61237 | -4.43117 | 32076 ft | 503 kts | 287° |
| 2026-04-30 10:25 | 49.63619 | -4.53247 | 32096 ft | 503 kts | 287° |
| 2026-04-30 10:26 | 49.65965 | -4.63360 | 32064 ft | 504 kts | 286° |
| 2026-04-30 10:26 | 49.68297 | -4.73584 | 32076 ft | 505 kts | 286° |
| 2026-04-30 10:27 | 49.70612 | -4.83829 | 32067 ft | 505 kts | 286° |
| 2026-04-30 10:27 | 49.72918 | -4.94087 | 32063 ft | 506 kts | 286° |
| 2026-04-30 10:28 | 49.75222 | -5.04374 | 32066 ft | 506 kts | 286° |
| 2026-04-30 10:28 | 49.77516 | -5.14665 | 32054 ft | 506 kts | 286° |
| 2026-04-30 10:29 | 49.79801 | -5.24965 | 32051 ft | 506 kts | 286° |
| 2026-04-30 10:29 | 49.82076 | -5.35272 | 32038 ft | 506 kts | 285° |
| 2026-04-30 10:30 | 49.84339 | -5.45576 | 32056 ft | 505 kts | 285° |
| 2026-04-30 10:30 | 49.86598 | -5.55912 | 32044 ft | 507 kts | 285° |
| 2026-04-30 10:31 | 49.88850 | -5.66273 | 32033 ft | 507 kts | 285° |
| 2026-04-30 10:31 | 49.91096 | -5.76653 | 32032 ft | 508 kts | 285° |
| 2026-04-30 10:32 | 49.93335 | -5.87054 | 32030 ft | 508 kts | 285° |
| 2026-04-30 10:32 | 49.95563 | -5.97457 | 32037 ft | 509 kts | 284° |
| 2026-04-30 10:33 | 49.97788 | -6.07899 | 32034 ft | 509 kts | 284° |
| 2026-04-30 10:33 | 50.00000 | -6.18338 | 32038 ft | 508 kts | 284° |
| 2026-04-30 10:34 | 50.02203 | -6.28784 | 32038 ft | 508 kts | 284° |
| 2026-04-30 10:34 | 50.04396 | -6.39236 | 32035 ft | 508 kts | 284° |
| 2026-04-30 10:35 | 50.06584 | -6.49718 | 32036 ft | 510 kts | 284° |
| 2026-04-30 10:35 | 50.08764 | -6.60223 | 32035 ft | 510 kts | 284° |
| 2026-04-30 10:36 | 50.10926 | -6.70690 | 32038 ft | 511 kts | 284° |
| 2026-04-30 10:36 | 50.13091 | -6.81231 | 32027 ft | 511 kts | 283° |
| 2026-04-30 10:37 | 50.15248 | -6.91785 | 32053 ft | 511 kts | 283° |
| 2026-04-30 10:37 | 50.17399 | -7.02367 | 32033 ft | 512 kts | 283° |
| 2026-04-30 10:38 | 50.19539 | -7.12951 | 32032 ft | 512 kts | 283° |
| 2026-04-30 10:38 | 50.21670 | -7.23552 | 32020 ft | 512 kts | 283° |
| 2026-04-30 10:39 | 50.23794 | -7.34172 | 32022 ft | 513 kts | 283° |
| 2026-04-30 10:39 | 50.25911 | -7.44825 | 32047 ft | 516 kts | 283° |
| 2026-04-30 10:40 | 50.28040 | -7.55591 | 32033 ft | 521 kts | 283° |
| 2026-04-30 10:40 | 50.30174 | -7.66436 | 32019 ft | 522 kts | 283° |
| 2026-04-30 10:41 | 50.32293 | -7.77263 | 32009 ft | 518 kts | 282° |
| 2026-04-30 10:41 | 50.34381 | -7.87993 | 32059 ft | 514 kts | 282° |
| 2026-04-30 10:42 | 50.36456 | -7.98723 | 32024 ft | 514 kts | 282° |
| 2026-04-30 10:42 | 50.38440 | -8.09486 | 32028 ft | 515 kts | 281° |
| 2026-04-30 10:43 | 50.40315 | -8.20287 | 32012 ft | 518 kts | 280° |
| 2026-04-30 10:43 | 50.42202 | -8.31219 | 32012 ft | 520 kts | 280° |
| 2026-04-30 10:44 | 50.44105 | -8.42195 | 32015 ft | 523 kts | 281° |
| 2026-04-30 10:44 | 50.46012 | -8.53211 | 32015 ft | 524 kts | 280° |
| 2026-04-30 10:45 | 50.47913 | -8.64253 | 32007 ft | 524 kts | 280° |
| 2026-04-30 10:45 | 50.49799 | -8.75289 | 32007 ft | 523 kts | 280° |
| 2026-04-30 10:46 | 50.51673 | -8.86325 | 32058 ft | 523 kts | 280° |
| 2026-04-30 10:46 | 50.53537 | -8.97385 | 31985 ft | 524 kts | 280° |
| 2026-04-30 10:47 | 50.55392 | -9.08458 | 32001 ft | 524 kts | 280° |
| 2026-04-30 10:47 | 50.57239 | -9.19551 | 32004 ft | 524 kts | 280° |
| 2026-04-30 10:48 | 50.59076 | -9.30657 | 32003 ft | 525 kts | 280° |
| 2026-04-30 10:48 | 50.60907 | -9.41801 | 32009 ft | 527 kts | 280° |
| 2026-04-30 10:49 | 50.62735 | -9.53005 | 32007 ft | 529 kts | 279° |
| 2026-04-30 10:49 | 50.64559 | -9.64255 | 32000 ft | 531 kts | 279° |
| 2026-04-30 10:50 | 50.66377 | -9.75538 | 31998 ft | 531 kts | 279° |
| 2026-04-30 10:50 | 50.68173 | -9.86758 | 31997 ft | 531 kts | 279° |
| 2026-04-30 10:51 | 50.69968 | -9.98056 | 31997 ft | 531 kts | 279° |
| 2026-04-30 10:51 | 50.71750 | -10.09346 | 31996 ft | 530 kts | 279° |
| 2026-04-30 10:52 | 50.73519 | -10.20634 | 31993 ft | 529 kts | 279° |
| 2026-04-30 10:52 | 50.75275 | -10.31914 | 31990 ft | 529 kts | 279° |
| 2026-04-30 10:53 | 50.77020 | -10.43212 | 31990 ft | 530 kts | 279° |
| 2026-04-30 10:53 | 50.78758 | -10.54536 | 31996 ft | 530 kts | 279° |
| 2026-04-30 10:54 | 50.80485 | -10.65868 | 31989 ft | 530 kts | 279° |
| 2026-04-30 10:54 | 50.82202 | -10.77213 | 31987 ft | 531 kts | 279° |
| 2026-04-30 10:55 | 50.83907 | -10.88569 | 32005 ft | 531 kts | 279° |
| 2026-04-30 10:55 | 50.85321 | -10.98039 | 31990 ft | 532 kts | 279° |
| 2026-04-30 10:56 | 50.87014 | -11.09459 | 31987 ft | 533 kts | 279° |
| 2026-04-30 10:56 | 50.88699 | -11.20912 | 31984 ft | 534 kts | 279° |
| 2026-04-30 10:57 | 50.90373 | -11.32368 | 31986 ft | 534 kts | 279° |
| 2026-04-30 10:57 | 50.92036 | -11.43839 | 31990 ft | 534 kts | 279° |
| 2026-04-30 10:58 | 50.93686 | -11.55297 | 31984 ft | 533 kts | 279° |
| 2026-04-30 10:58 | 50.95322 | -11.66749 | 31981 ft | 531 kts | 279° |
| 2026-04-30 10:59 | 50.96940 | -11.78167 | 31980 ft | 530 kts | 279° |
| 2026-04-30 10:59 | 50.98547 | -11.89582 | 31999 ft | 530 kts | 279° |
| 2026-04-30 11:00 | 50.99941 | -12.01054 | 31982 ft | 528 kts | 272° |
| 2026-04-30 11:00 | 51.00200 | -12.12549 | 31992 ft | 523 kts | 265° |
| 2026-04-30 11:01 | 51.00204 | -12.24114 | 31990 ft | 525 kts | 265° |
| 2026-04-30 11:01 | 51.00238 | -12.35707 | 31983 ft | 525 kts | 266° |
| 2026-04-30 11:02 | 51.00294 | -12.47316 | 31983 ft | 524 kts | 267° |
| 2026-04-30 11:02 | 51.00347 | -12.58853 | 31985 ft | 522 kts | 267° |
| 2026-04-30 11:03 | 51.00385 | -12.70359 | 31981 ft | 520 kts | 266° |
| 2026-04-30 11:04 | 51.00416 | -12.87533 | 32003 ft | 518 kts | 267° |
| 2026-04-30 11:04 | 51.00422 | -12.98951 | 31996 ft | 516 kts | 267° |
| 2026-04-30 11:05 | 51.00418 | -13.10336 | 31989 ft | 515 kts | 267° |
| 2026-04-30 11:05 | 51.00403 | -13.21706 | 31993 ft | 515 kts | 267° |
| 2026-04-30 11:06 | 51.00377 | -13.33066 | 32010 ft | 515 kts | 267° |
| 2026-04-30 11:06 | 51.00339 | -13.44357 | 32001 ft | 515 kts | 268° |
| 2026-04-30 11:07 | 51.00291 | -13.55729 | 32029 ft | 518 kts | 268° |
| 2026-04-30 11:07 | 51.00263 | -13.61454 | 32280 ft | 520 kts | 268° |
| 2026-04-30 11:07 | 51.00231 | -13.67190 | 32706 ft | 518 kts | 268° |
| 2026-04-30 11:07 | 51.00198 | -13.72883 | 33153 ft | 515 kts | 268° |
| 2026-04-30 11:08 | 51.00162 | -13.78573 | 33507 ft | 515 kts | 268° |
| 2026-04-30 11:08 | 51.00123 | -13.84235 | 33921 ft | 513 kts | 269° |
| 2026-04-30 11:08 | 51.00081 | -13.89910 | 34022 ft | 517 kts | 269° |
| 2026-04-30 11:09 | 50.99992 | -14.01313 | 34002 ft | 514 kts | 269° |
| 2026-04-30 11:09 | 51.00003 | -14.12591 | 34019 ft | 509 kts | 270° |
| 2026-04-30 11:10 | 51.00062 | -14.23830 | 34019 ft | 509 kts | 270° |
| 2026-04-30 11:10 | 51.00097 | -14.35078 | 34018 ft | 510 kts | 270° |
| 2026-04-30 11:11 | 51.00107 | -14.46346 | 34021 ft | 511 kts | 270° |
| 2026-04-30 11:11 | 51.00103 | -14.57628 | 34032 ft | 511 kts | 270° |
| 2026-04-30 11:12 | 51.00090 | -14.68923 | 34025 ft | 512 kts | 270° |
| 2026-04-30 11:12 | 51.00066 | -14.80241 | 34030 ft | 513 kts | 270° |
| 2026-04-30 11:13 | 51.00033 | -14.91553 | 34027 ft | 513 kts | 270° |
| 2026-04-30 11:14 | 51.00197 | -15.14407 | 34036 ft | 512 kts | 272° |
| 2026-04-30 11:14 | 51.00482 | -15.25704 | 34038 ft | 512 kts | 272° |
| 2026-04-30 11:15 | 51.00728 | -15.36977 | 34051 ft | 511 kts | 272° |
| 2026-04-30 11:15 | 51.00935 | -15.48239 | 34048 ft | 510 kts | 272° |
| 2026-04-30 11:16 | 51.01120 | -15.59464 | 34045 ft | 508 kts | 272° |
| 2026-04-30 11:16 | 51.01294 | -15.70662 | 34048 ft | 507 kts | 272° |
| 2026-04-30 11:17 | 51.01458 | -15.81857 | 34053 ft | 506 kts | 273° |
| 2026-04-30 11:17 | 51.01613 | -15.93003 | 34053 ft | 504 kts | 273° |
| 2026-04-30 11:18 | 51.01756 | -16.04087 | 34050 ft | 501 kts | 273° |
| 2026-04-30 11:18 | 51.01951 | -16.20642 | 34062 ft | 499 kts | 273° |
| 2026-04-30 11:19 | 51.02067 | -16.31646 | 34062 ft | 497 kts | 274° |
| 2026-04-30 11:19 | 51.02172 | -16.42587 | 34064 ft | 495 kts | 274° |
| 2026-04-30 11:20 | 51.02267 | -16.53491 | 34072 ft | 493 kts | 274° |
| 2026-04-30 11:20 | 51.02352 | -16.64351 | 34079 ft | 492 kts | 273° |
| 2026-04-30 11:21 | 51.02426 | -16.75131 | 34087 ft | 491 kts | 273° |
| 2026-04-30 11:21 | 51.02489 | -16.85965 | 34077 ft | 489 kts | 274° |
| 2026-04-30 11:22 | 51.02543 | -16.96747 | 34083 ft | 487 kts | 274° |
| 2026-04-30 11:22 | 51.02587 | -17.07488 | 34092 ft | 485 kts | 274° |
| 2026-04-30 11:23 | 51.02622 | -17.18188 | 34090 ft | 484 kts | 274° |
| 2026-04-30 11:24 | 51.02655 | -17.34221 | 34103 ft | 485 kts | 274° |
| 2026-04-30 11:24 | 51.02665 | -17.44952 | 34115 ft | 487 kts | 274° |
| 2026-04-30 11:25 | 51.02661 | -17.61153 | 34116 ft | 491 kts | 273° |
| 2026-04-30 11:26 | 51.02618 | -17.82826 | 34111 ft | 485 kts | 274° |
| 2026-04-30 11:26 | 51.02581 | -17.93442 | 34122 ft | 479 kts | 274° |
| 2026-04-30 11:27 | 51.02539 | -18.04042 | 34132 ft | 480 kts | 274° |
| 2026-04-30 11:27 | 51.02487 | -18.14675 | 34135 ft | 482 kts | 274° |
| 2026-04-30 11:28 | 51.02388 | -18.30651 | 34135 ft | 482 kts | 274° |
| 2026-04-30 11:29 | 51.02309 | -18.41263 | 34138 ft | 480 kts | 274° |
| 2026-04-30 11:29 | 51.02175 | -18.57063 | 34144 ft | 477 kts | 274° |
| 2026-04-30 11:30 | 51.02020 | -18.72836 | 34149 ft | 475 kts | 274° |
| 2026-04-30 11:31 | 51.01906 | -18.83292 | 34150 ft | 472 kts | 273° |
| 2026-04-30 11:31 | 51.01783 | -18.93694 | 34149 ft | 470 kts | 273° |
| 2026-04-30 11:32 | 51.01651 | -19.04075 | 34161 ft | 469 kts | 273° |
| 2026-04-30 11:32 | 51.01511 | -19.14424 | 34163 ft | 469 kts | 273° |
| 2026-04-30 11:33 | 51.01284 | -19.29941 | 34163 ft | 468 kts | 272° |
| 2026-04-30 11:33 | 51.01120 | -19.40276 | 34166 ft | 468 kts | 272° |
| 2026-04-30 11:34 | 51.00948 | -19.50594 | 34164 ft | 467 kts | 272° |
| 2026-04-30 11:34 | 51.00767 | -19.60898 | 34172 ft | 467 kts | 272° |
| 2026-04-30 11:35 | 51.00577 | -19.71212 | 34177 ft | 467 kts | 272° |
| 2026-04-30 11:35 | 51.00380 | -19.81450 | 34185 ft | 467 kts | 272° |
| 2026-04-30 11:36 | 51.00173 | -19.91756 | 34182 ft | 467 kts | 272° |
| 2026-04-30 11:36 | 50.99916 | -20.02065 | 34183 ft | 468 kts | 270° |
| 2026-04-30 11:37 | 50.99354 | -20.12372 | 34191 ft | 469 kts | 269° |
| 2026-04-30 11:37 | 50.98834 | -20.21011 | 34191 ft | 469 kts | 269° |
| 2026-04-30 11:38 | 50.98216 | -20.31314 | 34192 ft | 468 kts | 268° |
| 2026-04-30 11:38 | 50.97607 | -20.41564 | 34195 ft | 465 kts | 268° |
| 2026-04-30 11:39 | 50.96998 | -20.51760 | 34194 ft | 463 kts | 268° |
| 2026-04-30 11:39 | 50.96389 | -20.61841 | 34202 ft | 462 kts | 268° |
| 2026-04-30 11:40 | 50.95768 | -20.71968 | 34197 ft | 461 kts | 267° |
| 2026-04-30 11:40 | 50.95139 | -20.82065 | 34206 ft | 459 kts | 267° |
| 2026-04-30 11:41 | 50.94503 | -20.92131 | 34205 ft | 458 kts | 267° |
| 2026-04-30 11:41 | 50.93860 | -21.02178 | 34209 ft | 458 kts | 267° |
| 2026-04-30 11:42 | 50.93209 | -21.12213 | 34213 ft | 458 kts | 267° |
| 2026-04-30 11:42 | 50.92549 | -21.22247 | 34223 ft | 457 kts | 267° |
| 2026-04-30 11:43 | 50.91881 | -21.32255 | 34218 ft | 456 kts | 266° |
| 2026-04-30 11:43 | 50.91206 | -21.42240 | 34219 ft | 455 kts | 266° |
| 2026-04-30 11:44 | 50.90525 | -21.52197 | 34223 ft | 454 kts | 266° |
| 2026-04-30 11:44 | 50.89836 | -21.62143 | 34222 ft | 454 kts | 266° |
| 2026-04-30 11:45 | 50.89140 | -21.72058 | 34227 ft | 453 kts | 266° |
| 2026-04-30 11:45 | 50.88436 | -21.81963 | 34224 ft | 452 kts | 266° |
| 2026-04-30 11:46 | 50.87726 | -21.91843 | 34228 ft | 451 kts | 266° |
| 2026-04-30 11:46 | 50.87007 | -22.01721 | 34231 ft | 451 kts | 266° |
| 2026-04-30 11:47 | 50.86282 | -22.11575 | 34232 ft | 451 kts | 266° |
| 2026-04-30 11:47 | 50.85548 | -22.21429 | 34239 ft | 450 kts | 265° |
| 2026-04-30 11:48 | 50.84806 | -22.31270 | 34249 ft | 450 kts | 265° |
| 2026-04-30 11:48 | 50.84059 | -22.41079 | 34232 ft | 448 kts | 265° |
| 2026-04-30 11:49 | 50.83305 | -22.50845 | 34238 ft | 447 kts | 265° |
| 2026-04-30 11:49 | 50.82546 | -22.60582 | 34241 ft | 445 kts | 265° |
| 2026-04-30 11:50 | 50.81782 | -22.70280 | 34245 ft | 444 kts | 265° |
| 2026-04-30 11:50 | 50.81017 | -22.79885 | 34246 ft | 443 kts | 264° |
| 2026-04-30 11:51 | 50.80234 | -22.89610 | 34248 ft | 443 kts | 264° |
| 2026-04-30 11:51 | 50.79454 | -22.99200 | 34251 ft | 443 kts | 264° |
| 2026-04-30 11:52 | 50.78660 | -23.08858 | 34249 ft | 443 kts | 264° |
| 2026-04-30 11:52 | 50.77858 | -23.18511 | 34254 ft | 443 kts | 264° |
| 2026-04-30 11:53 | 50.77048 | -23.28171 | 34250 ft | 443 kts | 264° |
| 2026-04-30 11:53 | 50.76229 | -23.37825 | 34250 ft | 443 kts | 264° |
| 2026-04-30 11:54 | 50.75403 | -23.47470 | 34258 ft | 444 kts | 264° |
| 2026-04-30 11:54 | 50.74569 | -23.57118 | 34249 ft | 443 kts | 264° |
| 2026-04-30 11:55 | 50.73727 | -23.66758 | 34260 ft | 443 kts | 264° |
| 2026-04-30 11:55 | 50.72878 | -23.76383 | 34261 ft | 443 kts | 264° |
| 2026-04-30 11:56 | 50.72021 | -23.86005 | 34263 ft | 442 kts | 264° |
| 2026-04-30 11:56 | 50.71157 | -23.95616 | 34263 ft | 442 kts | 264° |
| 2026-04-30 11:57 | 50.70287 | -24.05209 | 34259 ft | 442 kts | 264° |
| 2026-04-30 11:57 | 50.69408 | -24.14801 | 34264 ft | 442 kts | 264° |
| 2026-04-30 11:58 | 50.68522 | -24.24384 | 34263 ft | 442 kts | 264° |
| 2026-04-30 11:58 | 50.67627 | -24.33973 | 34267 ft | 442 kts | 263° |
| 2026-04-30 11:59 | 50.66728 | -24.43521 | 34270 ft | 443 kts | 263° |
| 2026-04-30 11:59 | 50.65814 | -24.53143 | 34270 ft | 444 kts | 263° |
| 2026-04-30 12:00 | 50.64890 | -24.62768 | 34275 ft | 445 kts | 263° |
| 2026-04-30 12:00 | 50.63958 | -24.72403 | 34275 ft | 445 kts | 263° |
| 2026-04-30 12:01 | 50.63018 | -24.82039 | 34276 ft | 445 kts | 263° |
| 2026-04-30 12:01 | 50.62068 | -24.91677 | 34276 ft | 445 kts | 263° |
| 2026-04-30 12:02 | 50.61112 | -25.01306 | 34263 ft | 445 kts | 263° |
| 2026-04-30 12:02 | 50.60148 | -25.10919 | 34280 ft | 445 kts | 263° |
| 2026-04-30 12:03 | 50.58688 | -25.25339 | 34280 ft | 445 kts | 263° |
| 2026-04-30 12:04 | 50.57703 | -25.34952 | 34280 ft | 445 kts | 263° |
| 2026-04-30 12:04 | 50.56711 | -25.44567 | 34267 ft | 445 kts | 263° |
| 2026-04-30 12:05 | 50.55711 | -25.54167 | 34276 ft | 444 kts | 263° |
| 2026-04-30 12:05 | 50.54713 | -25.63680 | 34282 ft | 444 kts | 263° |
| 2026-04-30 12:06 | 50.53700 | -25.73247 | 34285 ft | 443 kts | 262° |
| 2026-04-30 12:06 | 50.52680 | -25.82803 | 34292 ft | 443 kts | 262° |
| 2026-04-30 12:07 | 50.51653 | -25.92354 | 34280 ft | 443 kts | 262° |
| 2026-04-30 12:07 | 50.50618 | -26.01902 | 34293 ft | 443 kts | 262° |
| 2026-04-30 12:08 | 50.49574 | -26.11452 | 34290 ft | 444 kts | 262° |
| 2026-04-30 12:08 | 50.48521 | -26.21014 | 34292 ft | 445 kts | 262° |
| 2026-04-30 12:09 | 50.47459 | -26.30582 | 34293 ft | 445 kts | 262° |
| 2026-04-30 12:09 | 50.46388 | -26.40153 | 34283 ft | 445 kts | 262° |
| 2026-04-30 12:10 | 50.45308 | -26.49723 | 34287 ft | 445 kts | 262° |
| 2026-04-30 12:10 | 50.44222 | -26.59285 | 34305 ft | 445 kts | 262° |
| 2026-04-30 12:11 | 50.43126 | -26.68855 | 34311 ft | 445 kts | 262° |
| 2026-04-30 12:11 | 50.42023 | -26.78409 | 34307 ft | 445 kts | 262° |
| 2026-04-30 12:12 | 50.40912 | -26.87965 | 34289 ft | 445 kts | 261° |
| 2026-04-30 12:12 | 50.39794 | -26.97514 | 34299 ft | 445 kts | 261° |
| 2026-04-30 12:13 | 50.38668 | -27.07051 | 34302 ft | 446 kts | 261° |
| 2026-04-30 12:13 | 50.37533 | -27.16607 | 34297 ft | 446 kts | 261° |
| 2026-04-30 12:14 | 50.36396 | -27.26100 | 34301 ft | 446 kts | 261° |
| 2026-04-30 12:14 | 50.35243 | -27.35653 | 34294 ft | 447 kts | 261° |
| 2026-04-30 12:15 | 50.34082 | -27.45205 | 34306 ft | 447 kts | 261° |
| 2026-04-30 12:15 | 50.32913 | -27.54762 | 34309 ft | 448 kts | 261° |
| 2026-04-30 12:16 | 50.31733 | -27.64336 | 34308 ft | 448 kts | 261° |
| 2026-04-30 12:16 | 50.30544 | -27.73912 | 34312 ft | 449 kts | 261° |
| 2026-04-30 12:17 | 50.28744 | -27.88280 | 34307 ft | 449 kts | 260° |
| 2026-04-30 12:17 | 50.27533 | -27.97866 | 34312 ft | 450 kts | 260° |
| 2026-04-30 12:18 | 50.26312 | -28.07461 | 34316 ft | 450 kts | 260° |
| 2026-04-30 12:18 | 50.25081 | -28.17065 | 34316 ft | 451 kts | 260° |
| 2026-04-30 12:19 | 50.23840 | -28.26679 | 34309 ft | 452 kts | 260° |
| 2026-04-30 12:19 | 50.22592 | -28.36287 | 34321 ft | 452 kts | 260° |
| 2026-04-30 12:20 | 50.21334 | -28.45907 | 34319 ft | 453 kts | 260° |
| 2026-04-30 12:20 | 50.20065 | -28.55542 | 34321 ft | 453 kts | 259° |
| 2026-04-30 12:21 | 50.18788 | -28.65168 | 34317 ft | 453 kts | 259° |
| 2026-04-30 12:21 | 50.17506 | -28.74779 | 34310 ft | 452 kts | 259° |
| 2026-04-30 12:22 | 50.16216 | -28.84375 | 34320 ft | 452 kts | 259° |
| 2026-04-30 12:22 | 50.15140 | -28.92331 | 34321 ft | 451 kts | 259° |
| 2026-04-30 12:23 | 50.13626 | -29.03450 | 34319 ft | 451 kts | 259° |
| 2026-04-30 12:23 | 50.12529 | -29.11461 | 34328 ft | 451 kts | 259° |
| 2026-04-30 12:24 | 50.11212 | -29.21017 | 34325 ft | 451 kts | 259° |
| 2026-04-30 12:24 | 50.09886 | -29.30575 | 34328 ft | 452 kts | 259° |
| 2026-04-30 12:25 | 50.08550 | -29.40142 | 34323 ft | 452 kts | 259° |
| 2026-04-30 12:25 | 50.07208 | -29.49691 | 34323 ft | 452 kts | 259° |
| 2026-04-30 12:26 | 50.05867 | -29.59177 | 34324 ft | 452 kts | 258° |
| 2026-04-30 12:26 | 50.04960 | -29.65557 | 34323 ft | 452 kts | 258° |